Terminal Aerodrome Forecast
Issued by NWS

Current Version | Previous Version | Graphics & Text | Print | Product List | Glossary On
Versions: 1 2 3 4 5 6 7 8 9 10 11 12 13 14 15 16 17 18
000
FTUS41 KPBZ 280500
TAFMGW
TAF
KMGW 280535Z 2806/2906 33005KT P6SM OVC020
     FM280800 33005KT 3SM BR BKN010
     FM281300 36005KT P6SM SKC=

USA.gov is the U.S. government's official web portal to all federal, state and local government web resources and services.